Time;durP1;ratioP1;P1;durP2;ratioP2;P2;SDS_P1;SDS_P2;PMS_P1;PMS_P2;Temp;Humidity;BMP_temperature;BMP_pressure;BME280_temperature;BME280_humidity;BME280_pressure;Samples;Min_cycle;Max_cycle;Signal;HPM_P1;HPM_P2
2020/12/02 00:00:35;;;;;;;0.30;0.30;;;;;;;2.89;84.26;101564.72;5104601;28;20110;-63
2020/12/02 00:03:10;;;;;;;0.30;0.30;;;;;;;3.01;84.21;101564.31;5104672;28;20020;-63
2020/12/02 00:05:39;;;;;;;0.30;0.30;;;;;;;2.90;84.57;101569.03;5104264;28;20436;-62
2020/12/02 00:08:11;;;;;;;0.30;0.30;;;;;;;2.97;84.29;101571.91;5119854;28;20028;-62
2020/12/02 00:10:37;;;;;;;0.40;0.40;;;;;;;3.02;83.73;101561.81;5103824;28;20035;-62
2020/12/02 00:13:05;;;;;;;0.30;0.30;;;;;;;2.97;83.80;101569.34;5104288;28;20028;-62
2020/12/02 00:15:31;;;;;;;0.65;0.65;;;;;;;3.14;82.92;101573.41;5103735;28;20031;-63
2020/12/02 00:17:57;;;;;;;0.30;0.30;;;;;;;2.99;83.19;101564.25;5104085;28;20027;-63
2020/12/02 00:20:24;;;;;;;1.15;0.95;;;;;;;2.88;83.88;101568.94;5103808;28;20104;-62
2020/12/02 00:22:49;;;;;;;0.30;0.30;;;;;;;2.89;83.94;101564.72;5104084;28;20271;-63
2020/12/02 00:25:16;;;;;;;0.30;0.30;;;;;;;2.83;84.22;101568.75;5103586;28;20455;-62
2020/12/02 00:27:41;;;;;;;1.20;1.20;;;;;;;2.90;84.02;101575.03;5104148;28;20020;-62
2020/12/02 00:30:08;;;;;;;0.70;0.70;;;;;;;2.86;84.36;101568.00;5103708;28;20361;-63
2020/12/02 00:32:38;;;;;;;0.30;0.30;;;;;;;2.87;84.50;101569.78;5103850;28;20032;-63
2020/12/02 00:35:06;;;;;;;0.30;0.30;;;;;;;2.89;84.49;101568.13;5103556;28;20033;-63
2020/12/02 00:37:31;;;;;;;0.30;0.30;;;;;;;2.92;84.07;101575.09;5104015;28;20035;-63
2020/12/02 00:39:57;;;;;;;0.30;0.30;;;;;;;2.88;84.56;101570.63;5103307;28;20087;-62
2020/12/02 00:42:23;;;;;;;0.70;0.70;;;;;;;2.91;84.50;101566.50;5103842;28;20031;-63
2020/12/02 00:44:49;;;;;;;0.30;0.30;;;;;;;2.92;84.73;101564.84;5103383;28;20468;-62
2020/12/02 00:47:19;;;;;;;0.30;0.30;;;;;;;2.93;84.87;101562.34;5103121;28;20070;-62
2020/12/02 00:49:46;;;;;;;0.30;0.30;;;;;;;3.01;84.33;101559.19;5103447;28;20026;-62
2020/12/02 00:52:12;;;;;;;0.30;0.30;;;;;;;2.97;84.47;101558.22;5103558;28;20042;-62
2020/12/02 00:54:38;;;;;;;0.30;0.30;;;;;;;2.95;84.40;101560.72;5103391;28;20028;-62
2020/12/02 00:57:03;;;;;;;0.30;0.30;;;;;;;2.97;84.42;101561.63;5103302;28;20031;-62
2020/12/02 00:59:30;;;;;;;0.30;0.30;;;;;;;3.11;83.34;101563.91;5103495;28;20027;-62
2020/12/02 01:02:19;;;;;;;0.30;0.30;;;;;;;2.99;83.41;101566.84;5103407;28;20016;-63
2020/12/02 01:04:45;;;;;;;0.20;0.20;;;;;;;2.88;84.06;101568.06;5103264;28;20020;-62
2020/12/02 01:07:15;;;;;;;0.50;0.50;;;;;;;2.92;83.75;101565.72;5103174;28;20103;-63
2020/12/02 01:09:40;;;;;;;0.95;0.95;;;;;;;2.83;83.97;101563.63;5103017;28;20024;-61
2020/12/02 01:12:10;;;;;;;0.30;0.30;;;;;;;2.79;84.33;101558.31;5103122;28;20024;-62
2020/12/02 01:14:36;;;;;;;0.40;0.40;;;;;;;2.92;84.08;101569.97;5103236;28;20427;-62
2020/12/02 01:17:01;;;;;;;0.30;0.30;;;;;;;2.87;83.89;101562.06;5103257;28;20542;-62
2020/12/02 01:19:31;;;;;;;0.40;0.40;;;;;;;2.83;84.14;101561.06;5102972;28;20036;-63
2020/12/02 01:22:08;;;;;;;1.05;1.05;;;;;;;2.87;83.71;101551.81;5103203;28;20376;-63
2020/12/02 01:24:39;;;;;;;0.30;0.30;;;;;;;2.85;83.91;101556.88;5103221;28;20083;-62
2020/12/02 01:27:35;;;;;;;0.40;0.40;;;;;;;2.85;83.87;101548.31;5102931;28;20039;-62
2020/12/02 01:30:01;;;;;;;1.05;0.93;;;;;;;2.83;84.14;101560.19;5103418;28;20024;-63
2020/12/02 01:32:26;;;;;;;0.40;0.40;;;;;;;2.85;84.06;101551.75;5103125;28;20024;-63
2020/12/02 01:34:53;;;;;;;0.40;0.40;;;;;;;2.87;83.80;101553.50;5102938;28;20051;-62
2020/12/02 01:37:26;;;;;;;1.75;1.70;;;;;;;2.88;83.70;101551.00;5103146;28;20107;-62
2020/12/02 01:40:15;;;;;;;0.77;0.77;;;;;;;2.89;83.64;101557.00;5102404;28;20110;-61
2020/12/02 01:42:43;;;;;;;0.30;0.30;;;;;;;2.92;83.53;101552.91;5098600;28;20040;-63
2020/12/02 01:45:17;;;;;;;1.48;1.48;;;;;;;2.93;83.43;101546.06;5102675;28;20091;-63
2020/12/02 01:47:55;;;;;;;0.55;0.55;;;;;;;2.91;83.35;101542.53;5102947;28;20024;-63
2020/12/02 01:50:49;;;;;;;1.25;1.25;;;;;;;2.99;82.78;101554.00;5102753;28;20028;-63
2020/12/02 01:53:23;;;;;;;0.30;0.30;;;;;;;3.01;82.24;101549.81;5093060;28;20040;-63
2020/12/02 01:55:54;;;;;;;0.60;0.60;;;;;;;2.89;82.56;101550.19;5102598;28;20167;-63
2020/12/02 01:58:50;;;;;;;0.30;0.30;;;;;;;2.83;82.91;101545.69;5103282;28;20110;-63
2020/12/02 02:01:33;;;;;;;0.40;0.40;;;;;;;2.87;82.62;101544.13;5106203;28;20028;-63
2020/12/02 02:04:01;;;;;;;0.30;0.30;;;;;;;2.77;82.87;101549.66;5106748;28;20170;-63
2020/12/02 02:06:42;;;;;;;0.40;0.40;;;;;;;2.73;83.52;101546.97;5106474;28;20008;-63
2020/12/02 02:09:09;;;;;;;0.40;0.40;;;;;;;2.78;82.87;101541.19;5106466;28;20012;-63
2020/12/02 02:11:41;;;;;;;0.30;0.30;;;;;;;2.81;82.95;101547.28;5106045;28;20091;-63
2020/12/02 02:14:21;;;;;;;0.40;0.40;;;;;;;2.77;82.97;101544.53;5106160;28;20035;-63
2020/12/02 02:16:47;;;;;;;5.55;5.13;;;;;;;2.76;82.73;101533.41;5106190;28;20038;-63
2020/12/02 02:19:25;;;;;;;0.40;0.40;;;;;;;2.73;82.80;101535.84;5106022;28;20027;-63
2020/12/02 02:21:53;;;;;;;0.60;0.60;;;;;;;2.70;83.04;101534.03;5106165;28;20027;-63
2020/12/02 02:24:19;;;;;;;0.30;0.30;;;;;;;2.75;82.87;101531.66;5105156;28;20546;-63
2020/12/02 02:26:53;;;;;;;0.40;0.40;;;;;;;2.76;82.88;101522.28;5104604;28;20020;-63
2020/12/02 02:29:24;;;;;;;0.30;0.30;;;;;;;2.77;82.68;101524.03;5104642;28;20024;-63
2020/12/02 02:32:08;;;;;;;0.30;0.30;;;;;;;2.79;82.49;101517.28;5105913;28;20092;-63
2020/12/02 02:34:37;;;;;;;0.30;0.30;;;;;;;2.81;81.89;101516.50;5105760;28;20128;-63
2020/12/02 02:37:04;;;;;;;0.35;0.35;;;;;;;2.77;81.77;101521.44;5104343;28;20034;-63
2020/12/02 02:39:30;;;;;;;0.70;0.68;;;;;;;2.66;81.80;101506.50;5105702;28;20261;-63
2020/12/02 02:42:25;;;;;;;0.30;0.30;;;;;;;2.60;82.43;101516.50;5105608;28;20024;-63
2020/12/02 02:44:51;;;;;;;0.30;0.30;;;;;;;2.60;82.79;101512.22;5105531;28;20328;-63
2020/12/02 02:47:16;;;;;;;0.40;0.40;;;;;;;2.63;82.63;101511.50;5105614;28;20034;-63
2020/12/02 02:49:42;;;;;;;0.30;0.30;;;;;;;2.63;82.88;101508.06;5121258;28;20020;-63
2020/12/02 02:52:08;;;;;;;5.25;3.92;;;;;;;2.61;83.05;101502.88;5105720;28;20028;-63
2020/12/02 02:54:33;;;;;;;0.30;0.30;;;;;;;2.70;82.69;101499.81;5105239;28;20031;-63
2020/12/02 02:56:59;;;;;;;0.50;0.50;;;;;;;2.66;82.90;101500.50;5105517;28;20042;-63
2020/12/02 02:59:24;;;;;;;0.30;0.30;;;;;;;2.73;82.69;101490.56;5105513;28;20020;-63
2020/12/02 03:01:50;;;;;;;0.30;0.30;;;;;;;2.67;82.07;101487.72;5105368;28;20051;-63
2020/12/02 03:04:15;;;;;;;0.35;0.35;;;;;;;2.65;82.16;101484.22;5105515;28;20377;-63
2020/12/02 03:06:40;;;;;;;0.30;0.30;;;;;;;2.60;82.70;101483.19;5105220;28;20422;-63
2020/12/02 03:09:10;;;;;;;0.40;0.40;;;;;;;2.66;82.52;101491.13;5104764;28;20069;-63
2020/12/02 03:11:35;;;;;;;0.30;0.30;;;;;;;2.58;82.36;101485.69;5104939;28;20020;-63
2020/12/02 03:14:01;;;;;;;0.30;0.30;;;;;;;2.60;82.26;101485.75;5105152;28;20030;-63
2020/12/02 03:16:39;;;;;;;0.30;0.30;;;;;;;2.70;81.61;101487.84;5104737;28;20027;-62
2020/12/02 03:19:18;;;;;;;0.32;0.32;;;;;;;2.59;81.87;101479.72;5105004;28;20099;-62
2020/12/02 03:21:43;;;;;;;0.43;0.43;;;;;;;2.58;81.62;101480.56;5104965;28;20020;-62
2020/12/02 03:24:09;;;;;;;0.47;0.47;;;;;;;2.66;81.01;101470.59;5104871;28;20032;-62
2020/12/02 03:26:36;;;;;;;0.40;0.40;;;;;;;2.43;81.76;101467.09;5104626;28;20027;-62
2020/12/02 03:29:03;;;;;;;0.30;0.30;;;;;;;2.38;82.34;101469.44;5104788;28;20020;-63
2020/12/02 03:31:28;;;;;;;0.30;0.30;;;;;;;2.35;82.76;101464.19;5104500;28;20028;-62
2020/12/02 03:33:53;;;;;;;0.30;0.30;;;;;;;2.42;82.89;101466.22;5120398;28;20085;-62
2020/12/02 03:36:20;;;;;;;0.30;0.30;;;;;;;2.50;82.37;101452.81;5104563;28;20039;-62
2020/12/02 03:38:46;;;;;;;0.30;0.30;;;;;;;2.44;82.29;101448.31;5104586;28;20027;-62
2020/12/02 03:41:13;;;;;;;2.55;2.35;;;;;;;2.46;81.93;101452.69;5104119;28;20028;-62
2020/12/02 03:43:39;;;;;;;0.30;0.30;;;;;;;2.42;82.02;101449.94;5104717;28;20088;-63
2020/12/02 03:46:05;;;;;;;0.40;0.40;;;;;;;2.39;82.29;101454.94;5119892;28;20089;-63
2020/12/02 03:48:30;;;;;;;0.30;0.30;;;;;;;2.38;82.21;101440.38;5104528;28;20031;-62
2020/12/02 03:50:56;;;;;;;0.57;0.57;;;;;;;2.40;81.92;101444.75;5104160;28;20020;-63
2020/12/02 03:53:21;;;;;;;7.32;1.63;;;;;;;2.39;81.72;101437.88;5104721;28;20016;-63
2020/12/02 03:55:47;;;;;;;0.30;0.30;;;;;;;2.31;82.22;101441.81;5103942;28;20557;-63
2020/12/02 03:58:13;;;;;;;0.40;0.40;;;;;;;2.37;81.97;101444.63;5104477;28;20028;-62
2020/12/02 04:00:38;;;;;;;8.80;6.32;;;;;;;2.33;82.02;101437.63;5104270;28;20046;-62
2020/12/02 04:03:05;;;;;;;0.52;0.52;;;;;;;2.32;82.24;101441.88;5104467;28;20024;-62
2020/12/02 04:05:30;;;;;;;0.40;0.40;;;;;;;2.40;81.84;101439.63;5104145;28;20081;-63
2020/12/02 04:07:56;;;;;;;0.40;0.40;;;;;;;2.43;81.16;101444.03;5104342;28;20028;-62
2020/12/02 04:10:21;;;;;;;0.35;0.35;;;;;;;2.29;81.93;101438.28;5103858;28;20052;-63
2020/12/02 04:12:47;;;;;;;0.40;0.40;;;;;;;2.29;82.00;101438.28;5104303;28;20027;-63
2020/12/02 04:15:17;;;;;;;0.40;0.40;;;;;;;2.36;81.41;101445.44;5104004;28;20481;-63
2020/12/02 04:17:45;;;;;;;0.30;0.30;;;;;;;2.39;81.15;101439.56;5104152;28;20027;-63
2020/12/02 04:20:10;;;;;;;0.32;0.32;;;;;;;2.33;81.29;101445.31;5104142;28;20028;-64
2020/12/02 04:22:35;;;;;;;0.30;0.30;;;;;;;2.33;81.02;101442.75;5103465;28;20028;-63
2020/12/02 04:25:03;;;;;;;0.30;0.30;;;;;;;2.31;81.21;101434.13;5103700;28;20020;-62
2020/12/02 04:27:29;;;;;;;0.40;0.40;;;;;;;2.35;81.17;101441.09;5104082;28;20184;-63
2020/12/02 04:29:54;;;;;;;1.10;1.10;;;;;;;2.25;81.49;101437.31;5103982;28;20044;-63
2020/12/02 04:32:19;;;;;;;0.40;0.40;;;;;;;2.16;82.25;101427.53;5104056;28;20020;-63
2020/12/02 04:34:45;;;;;;;4.13;3.60;;;;;;;2.21;82.66;101437.97;5103456;28;20105;-63
2020/12/02 04:37:10;;;;;;;0.30;0.30;;;;;;;2.50;80.83;101440.00;5104108;28;20024;-63
2020/12/02 04:39:36;;;;;;;0.30;0.30;;;;;;;2.38;80.96;101448.94;5103753;28;20028;-62
2020/12/02 04:42:01;;;;;;;0.30;0.30;;;;;;;2.37;81.13;101429.25;5103664;28;20083;-61
2020/12/02 04:44:27;;;;;;;0.30;0.30;;;;;;;2.47;80.24;101433.06;5103776;28;20016;-61
2020/12/02 04:46:55;;;;;;;0.30;0.30;;;;;;;2.45;80.35;101438.13;5103836;28;20529;-62
2020/12/02 04:49:32;;;;;;;0.50;0.50;;;;;;;2.40;80.12;101420.78;5103669;28;20455;-62
2020/12/02 04:52:02;;;;;;;0.30;0.30;;;;;;;2.50;79.60;101428.06;5103787;28;20048;-63
2020/12/02 04:54:28;;;;;;;0.38;0.38;;;;;;;2.29;80.42;101423.81;5103815;28;20051;-63
2020/12/02 04:56:53;;;;;;;1.45;1.35;;;;;;;2.43;79.92;101426.94;5103420;28;20030;-63
2020/12/02 04:59:19;;;;;;;0.50;0.50;;;;;;;2.39;79.94;101419.06;5103772;28;20027;-62
2020/12/02 05:01:55;;;;;;;0.30;0.30;;;;;;;2.45;79.61;101419.31;5103381;28;20027;-63
2020/12/02 05:04:26;;;;;;;0.32;0.32;;;;;;;2.34;80.40;101426.56;5103599;28;20024;-63
2020/12/02 05:07:07;;;;;;;0.73;0.73;;;;;;;2.21;80.88;101431.16;5103579;28;20035;-62
2020/12/02 05:09:36;;;;;;;0.40;0.40;;;;;;;2.19;81.38;101422.53;5103435;28;20051;-63
2020/12/02 05:12:22;;;;;;;0.70;0.70;;;;;;;2.31;80.95;101426.44;5103240;28;20047;-63
2020/12/02 05:14:48;;;;;;;0.65;0.65;;;;;;;2.45;79.97;101427.88;5102960;28;20128;-63
2020/12/02 05:17:19;;;;;;;0.30;0.30;;;;;;;2.41;80.16;101425.97;5103373;28;20024;-64
2020/12/02 05:19:48;;;;;;;0.50;0.50;;;;;;;2.45;79.69;101427.88;5103259;28;20020;-63
2020/12/02 05:22:17;;;;;;;0.30;0.30;;;;;;;2.33;80.24;101425.66;5103244;28;20263;-64
2020/12/02 05:24:49;;;;;;;0.38;0.38;;;;;;;2.34;80.09;101421.44;5103282;28;20016;-63
2020/12/02 05:27:28;;;;;;;0.50;0.50;;;;;;;2.29;80.38;101428.03;5103058;28;20024;-63
2020/12/02 05:30:17;;;;;;;0.40;0.40;;;;;;;2.32;80.11;101428.16;5103208;28;20062;-63
2020/12/02 05:33:01;;;;;;;0.40;0.40;;;;;;;2.29;80.13;101416.13;5104305;28;20028;-63
2020/12/02 05:35:29;;;;;;;0.30;0.30;;;;;;;2.26;80.25;101413.41;5106656;28;20324;-63
2020/12/02 05:37:54;;;;;;;0.63;0.63;;;;;;;2.24;80.18;101417.59;5107112;28;20028;-63
2020/12/02 05:40:21;;;;;;;0.30;0.30;;;;;;;2.31;79.95;101422.19;5105889;28;20034;-63
2020/12/02 05:43:00;;;;;;;0.68;0.68;;;;;;;2.34;79.22;101416.31;5105905;28;20286;-62
2020/12/02 05:45:38;;;;;;;0.30;0.30;;;;;;;2.29;79.76;101413.56;5105522;28;20038;-62
2020/12/02 05:48:13;;;;;;;0.40;0.40;;;;;;;2.22;79.94;101417.53;5107032;28;20044;-62
2020/12/02 05:50:38;;;;;;;0.40;0.40;;;;;;;2.21;80.25;101426.03;5106779;28;20027;-62
2020/12/02 05:53:17;;;;;;;0.30;0.30;;;;;;;2.22;80.09;101426.94;5106959;28;20377;-62
2020/12/02 05:55:42;;;;;;;0.30;0.30;;;;;;;2.39;79.11;101419.94;5106471;28;20370;-63
2020/12/02 05:58:08;;;;;;;0.40;0.40;;;;;;;2.29;79.11;101413.56;5106775;28;20020;-63
2020/12/02 06:00:33;;;;;;;4.05;1.67;;;;;;;2.29;78.55;101405.88;5106419;28;20020;-63
2020/12/02 06:03:00;;;;;;;0.40;0.40;;;;;;;2.31;78.56;101399.13;5106829;28;20464;-63
2020/12/02 06:05:29;;;;;;;0.40;0.40;;;;;;;2.27;78.80;101399.78;5106574;28;20016;-63
2020/12/02 06:07:58;;;;;;;0.40;0.40;;;;;;;2.24;78.98;101402.22;5106582;28;20518;-64
2020/12/02 06:10:42;;;;;;;0.50;0.50;;;;;;;2.16;79.42;101398.44;5106309;28;20020;-64
2020/12/02 06:13:11;;;;;;;0.35;0.35;;;;;;;2.25;78.89;101400.53;5106577;28;20024;-64
2020/12/02 06:15:38;;;;;;;0.38;0.38;;;;;;;2.10;79.21;101399.09;5105457;28;20020;-64
2020/12/02 06:18:26;;;;;;;0.30;0.30;;;;;;;2.17;79.68;101395.09;5105310;28;20047;-63
2020/12/02 06:20:52;;;;;;;0.30;0.30;;;;;;;2.22;79.22;101396.19;5105334;28;20067;-63
2020/12/02 06:23:18;;;;;;;0.30;0.30;;;;;;;2.20;79.23;101392.66;5106380;28;20032;-63
2020/12/02 06:25:47;;;;;;;0.88;0.88;;;;;;;2.16;79.15;101381.41;5106170;28;20016;-63
2020/12/02 06:28:22;;;;;;;0.85;0.85;;;;;;;2.26;78.85;101382.66;5106371;28;20024;-63
2020/12/02 06:31:12;;;;;;;0.40;0.40;;;;;;;2.32;78.32;101387.16;5105985;28;20102;-64
2020/12/02 06:33:42;;;;;;;0.40;0.40;;;;;;;2.33;78.44;101388.94;5106370;28;20096;-63
2020/12/02 06:36:18;;;;;;;0.40;0.40;;;;;;;2.31;78.52;101385.41;5105739;28;20040;-63
2020/12/02 06:38:46;;;;;;;0.65;0.65;;;;;;;2.34;78.42;101381.31;5105939;28;20031;-63
2020/12/02 06:41:23;;;;;;;0.40;0.40;;;;;;;2.32;78.38;101382.91;5105441;28;20142;-61
2020/12/02 06:44:11;;;;;;;0.32;0.32;;;;;;;2.32;78.75;101382.91;5105489;28;20032;-59
2020/12/02 06:46:48;;;;;;;0.40;0.40;;;;;;;2.37;78.34;101388.25;5082650;28;20120;-62
2020/12/02 06:49:15;;;;;;;0.30;0.30;;;;;;;2.34;78.23;101375.31;5082722;28;20567;-63
2020/12/02 06:52:27;;;;;;;0.50;0.50;;;;;;;2.47;77.94;101387.81;5082038;28;20067;-63
2020/12/02 06:54:59;;;;;;;0.30;0.30;;;;;;;2.55;77.47;101379.56;5042005;28;20025;-63
2020/12/02 06:57:28;;;;;;;2.67;2.45;;;;;;;2.46;77.68;101385.19;5042235;28;20036;-63
2020/12/02 06:59:58;;;;;;;0.40;0.40;;;;;;;2.46;77.87;101375.78;5042415;28;20053;-63
2020/12/02 07:02:55;;;;;;;0.40;0.40;;;;;;;2.50;77.52;101376.81;5042466;28;20030;-63
2020/12/02 07:05:26;;;;;;;0.30;0.30;;;;;;;2.54;77.14;101375.25;5042380;28;20659;-63
2020/12/02 07:08:27;;;;;;;0.75;0.75;;;;;;;2.54;77.34;101375.25;5042394;28;20057;-62
2020/12/02 07:11:16;;;;;;;0.30;0.30;;;;;;;2.54;77.23;101368.41;5035155;28;20034;-63
2020/12/02 07:13:44;;;;;;;2.28;2.17;;;;;;;2.64;76.75;101364.53;5042359;28;20524;-63
2020/12/02 07:16:18;;;;;;;0.80;0.80;;;;;;;2.68;76.59;101361.28;5041773;28;20053;-63
2020/12/02 07:18:53;;;;;;;1.52;1.52;;;;;;;2.59;76.69;101366.91;5042212;28;20026;-63
2020/12/02 07:21:26;;;;;;;0.70;0.70;;;;;;;2.48;77.35;101368.16;5042046;28;20025;-62
2020/12/02 07:23:53;;;;;;;0.38;0.38;;;;;;;2.62;76.68;101361.03;5065897;28;20044;-63
2020/12/02 07:26:20;;;;;;;0.40;0.40;;;;;;;2.66;76.46;101351.78;5081744;28;20493;-62
2020/12/02 07:28:46;;;;;;;0.50;0.50;;;;;;;2.60;76.16;101352.41;5094283;28;20081;-62
2020/12/02 07:31:22;;;;;;;0.30;0.30;;;;;;;2.50;77.14;101357.97;5104570;28;20085;-62
2020/12/02 07:34:00;;;;;;;0.32;0.32;;;;;;;2.53;76.93;101347.84;5104889;28;20024;-61
2020/12/02 07:36:29;;;;;;;0.40;0.40;;;;;;;2.43;77.49;101354.31;5104461;28;20070;-61
2020/12/02 07:39:10;;;;;;;0.45;0.45;;;;;;;2.42;78.30;101352.53;5104665;28;20028;-61
2020/12/02 07:41:43;;;;;;;0.35;0.35;;;;;;;2.52;78.31;101359.81;5104802;28;20024;-63
2020/12/02 07:44:09;;;;;;;0.30;0.30;;;;;;;2.63;77.30;101351.66;5104189;28;20083;-62
2020/12/02 07:46:35;;;;;;;0.30;0.30;;;;;;;2.63;77.07;101349.09;5104720;28;20012;-63
2020/12/02 07:49:02;;;;;;;0.45;0.45;;;;;;;2.55;77.37;101341.97;5104547;28;20375;-63
2020/12/02 07:51:35;;;;;;;2.97;2.70;;;;;;;2.68;76.66;101347.59;5104518;28;20020;-63
2020/12/02 07:54:20;;;;;;;0.35;0.35;;;;;;;2.62;76.49;101339.66;5104649;28;20430;-61
2020/12/02 07:56:48;;;;;;;0.40;0.40;;;;;;;2.70;76.23;101336.56;5118786;28;20020;-62
2020/12/02 07:59:18;;;;;;;0.40;0.40;;;;;;;2.62;76.50;101335.38;5104448;28;20062;-62
2020/12/02 08:01:56;;;;;;;7.95;4.38;;;;;;;2.66;76.34;101333.81;5104347;28;20084;-63
2020/12/02 08:04:21;;;;;;;17.27;10.30;;;;;;;2.63;76.41;101324.34;5104548;28;20024;-63
2020/12/02 08:06:47;;;;;;;6.38;3.92;;;;;;;2.76;75.87;101324.81;5104320;28;20083;-63
2020/12/02 08:09:12;;;;;;;18.38;10.32;;;;;;;2.68;76.04;101327.06;5104410;28;20016;-63
2020/12/02 08:11:48;;;;;;;17.20;9.38;;;;;;;2.72;75.95;101327.25;5104335;28;20026;-63
2020/12/02 08:14:20;;;;;;;18.25;9.23;;;;;;;2.64;76.12;101320.94;5104203;28;20035;-62
2020/12/02 08:16:46;;;;;;;20.00;10.63;;;;;;;2.66;75.95;101321.00;5104015;28;20058;-63
2020/12/02 08:19:13;;;;;;;14.95;8.80;;;;;;;2.63;76.48;101319.22;5103988;28;20463;-62
2020/12/02 08:21:49;;;;;;;20.45;10.55;;;;;;;2.68;76.20;101314.25;5104043;28;20048;-63
2020/12/02 08:24:36;;;;;;;25.05;12.73;;;;;;;2.65;76.48;101311.56;5104220;28;20027;-63
2020/12/02 08:27:01;;;;;;;23.50;13.43;;;;;;;2.70;76.45;101310.94;5102744;28;20115;-63
2020/12/02 08:29:30;;;;;;;23.73;12.85;;;;;;;2.70;76.41;101307.50;5103343;28;20012;-63
2020/12/02 08:32:01;;;;;;;20.38;12.13;;;;;;;2.63;77.17;101298.69;5103484;28;20024;-63
2020/12/02 08:34:30;;;;;;;22.85;11.75;;;;;;;2.63;77.38;101296.13;5104136;28;20040;-63
2020/12/02 08:37:15;;;;;;;21.23;11.10;;;;;;;2.71;77.08;101297.31;5103835;28;20048;-63
2020/12/02 08:39:43;;;;;;;21.08;11.48;;;;;;;2.70;77.37;101289.56;5103931;28;20028;-63
2020/12/02 08:42:11;;;;;;;20.90;11.35;;;;;;;2.73;76.98;101287.97;5103805;28;20031;-63
2020/12/02 08:44:36;;;;;;;22.27;10.73;;;;;;;2.73;76.89;101293.09;5103975;28;20054;-63
2020/12/02 08:47:01;;;;;;;21.15;12.85;;;;;;;2.72;76.84;101286.22;5104215;28;20051;-64
2020/12/02 08:49:31;;;;;;;23.60;13.93;;;;;;;2.68;77.35;101278.34;5104079;28;20024;-63
2020/12/02 08:51:57;;;;;;;19.38;9.68;;;;;;;2.74;77.03;101288.84;5104144;28;20315;-63
2020/12/02 08:54:25;;;;;;;12.50;7.35;;;;;;;2.83;76.10;101276.38;5103875;28;20384;-63
2020/12/02 08:56:53;;;;;;;22.25;12.57;;;;;;;2.70;76.74;101276.75;5103279;28;20383;-62
2020/12/02 08:59:19;;;;;;;14.80;8.13;;;;;;;2.71;76.87;101271.66;5103781;28;20020;-63
2020/12/02 09:01:44;;;;;;;7.85;4.25;;;;;;;3.03;75.13;101272.78;5103522;28;20039;-63
2020/12/02 09:04:10;;;;;;;22.60;8.70;;;;;;;2.79;75.78;101266.81;5103644;28;20089;-63
2020/12/02 09:06:36;;;;;;;14.25;7.38;;;;;;;2.77;76.20;101270.13;5119239;28;20051;-63
2020/12/02 09:09:02;;;;;;;16.52;10.10;;;;;;;2.84;75.45;101264.44;5107025;28;20031;-63
2020/12/02 09:11:36;;;;;;;18.98;11.00;;;;;;;2.78;76.09;101264.19;5107298;28;20032;-63
2020/12/02 09:14:04;;;;;;;9.50;6.43;;;;;;;2.84;75.78;101254.16;5107650;28;20024;-63
2020/12/02 09:16:35;;;;;;;16.85;9.55;;;;;;;2.76;76.05;101263.25;5107608;28;20088;-64
2020/12/02 09:19:01;;;;;;;18.40;10.43;;;;;;;2.81;75.74;101254.06;5107661;28;20031;-62
2020/12/02 09:21:28;;;;;;;16.80;8.27;;;;;;;2.97;74.97;101251.22;5107380;28;20027;-63
2020/12/02 09:23:56;;;;;;;20.38;10.55;;;;;;;2.90;75.19;101243.25;5107641;28;20187;-62
2020/12/02 09:26:23;;;;;;;22.02;12.15;;;;;;;2.80;75.50;101244.59;5107237;28;20020;-63
2020/12/02 09:28:49;;;;;;;16.42;10.10;;;;;;;2.76;75.99;101253.00;5107402;28;20102;-63
2020/12/02 09:31:16;;;;;;;14.77;6.85;;;;;;;2.92;75.35;101242.50;5107205;28;20024;-63
2020/12/02 09:33:41;;;;;;;22.65;10.48;;;;;;;2.83;75.58;101239.56;5107537;28;20027;-63
2020/12/02 09:36:06;;;;;;;16.95;8.85;;;;;;;2.97;74.82;101234.97;5106897;28;20040;-64
2020/12/02 09:38:33;;;;;;;17.08;9.93;;;;;;;2.84;75.24;101236.22;5122826;28;20123;-63
2020/12/02 09:41:14;;;;;;;11.38;6.03;;;;;;;2.89;75.38;101233.81;5105774;28;20035;-62
2020/12/02 09:44:11;;;;;;;15.10;8.25;;;;;;;2.84;75.71;101223.38;5106033;28;20023;-62
2020/12/02 09:46:41;;;;;;;10.68;6.07;;;;;;;2.81;75.69;101220.72;5098924;28;20037;-63
2020/12/02 09:49:08;;;;;;;16.58;9.52;;;;;;;2.76;76.06;101219.66;5107008;28;20459;-62
2020/12/02 09:51:33;;;;;;;17.08;8.80;;;;;;;2.94;75.47;101222.91;5106935;28;20043;-64
2020/12/02 09:53:59;;;;;;;18.67;9.35;;;;;;;2.90;75.63;101220.16;5107047;28;20472;-64
2020/12/02 09:56:27;;;;;;;17.98;9.30;;;;;;;2.93;75.71;101212.56;5106373;28;20028;-63
2020/12/02 09:58:57;;;;;;;19.63;9.50;;;;;;;2.81;76.10;101210.47;5105650;28;20089;-63
2020/12/02 10:01:49;;;;;;;13.07;5.32;;;;;;;2.95;75.86;101206.72;5106621;28;20038;-64
2020/12/02 10:04:35;;;;;;;11.68;7.00;;;;;;;2.79;76.55;101204.38;5106831;28;20051;-63
2020/12/02 10:07:20;;;;;;;12.40;7.63;;;;;;;2.86;76.58;101196.09;5106443;28;20051;-63
2020/12/02 10:10:26;;;;;;;13.68;8.82;;;;;;;2.79;76.78;101189.00;5106661;28;20035;-63
2020/12/02 10:13:02;;;;;;;18.50;8.18;;;;;;;2.77;76.85;101185.50;5063375;28;20072;-63
2020/12/02 10:16:03;;;;;;;26.38;13.82;;;;;;;2.84;76.53;101177.22;5063217;28;20635;-63
2020/12/02 10:18:38;;;;;;;13.35;8.95;;;;;;;2.81;76.54;101179.69;5063349;28;20040;-63
2020/12/02 10:21:26;;;;;;;22.40;13.85;;;;;;;2.68;77.22;101166.41;5062630;28;20033;-63
2020/12/02 10:23:57;;;;;;;20.58;12.23;;;;;;;2.86;76.81;101167.88;5063431;28;20044;-63
2020/12/02 10:27:01;;;;;;;19.98;9.27;;;;;;;2.81;77.12;101160.00;5062910;28;20116;-63
2020/12/02 10:29:52;;;;;;;25.40;14.25;;;;;;;2.65;77.53;101161.16;5063079;28;20044;-62
2020/12/02 10:32:33;;;;;;;11.88;5.78;;;;;;;2.81;77.15;101151.47;5062663;28;20029;-63
2020/12/02 10:34:59;;;;;;;25.67;13.50;;;;;;;2.78;77.11;101152.22;5062674;28;20045;-63
2020/12/02 10:37:35;;;;;;;14.82;6.78;;;;;;;2.82;77.12;101142.94;5062802;28;20529;-63
2020/12/02 10:40:01;;;;;;;17.08;9.68;;;;;;;2.81;77.01;101148.91;5062441;28;20029;-63
2020/12/02 10:42:54;;;;;;;13.05;5.70;;;;;;;3.00;76.56;101139.28;5062393;28;20048;-63
2020/12/02 10:45:23;;;;;;;11.00;5.93;;;;;;;2.94;76.34;101132.25;5062233;28;20037;-64
2020/12/02 10:47:48;;;;;;;12.55;6.72;;;;;;;2.87;76.49;101123.47;5062662;28;20088;-63
2020/12/02 10:50:16;;;;;;;20.95;11.73;;;;;;;2.70;77.64;101113.47;5100374;28;20043;-63
2020/12/02 10:52:42;;;;;;;20.23;11.40;;;;;;;2.71;77.62;101120.38;5105283;28;20291;-63
2020/12/02 10:55:13;;;;;;;18.17;7.88;;;;;;;2.87;76.81;101110.66;5105239;28;20024;-62
2020/12/02 10:57:40;;;;;;;15.10;8.38;;;;;;;2.92;76.79;101114.25;5105089;28;20034;-63
2020/12/02 11:00:07;;;;;;;18.50;9.98;;;;;;;2.73;77.28;101115.31;5105292;28;20031;-63
2020/12/02 11:02:33;;;;;;;20.65;8.70;;;;;;;2.69;77.75;101116.88;5105521;28;20020;-63
2020/12/02 11:04:58;;;;;;;24.17;11.25;;;;;;;2.65;78.06;101107.31;5105181;28;20043;-63
2020/12/02 11:07:40;;;;;;;16.05;8.32;;;;;;;2.73;77.91;101100.78;5105415;28;20024;-63
2020/12/02 11:10:22;;;;;;;25.20;11.65;;;;;;;2.71;78.17;101098.97;5105072;28;20035;-63
2020/12/02 11:12:57;;;;;;;17.15;9.05;;;;;;;2.70;78.14;101102.38;5105326;28;20031;-63
2020/12/02 11:15:43;;;;;;;29.80;15.95;;;;;;;2.69;78.81;101098.94;5104857;28;20520;-63
2020/12/02 11:18:45;;;;;;;24.83;12.00;;;;;;;2.84;77.63;101092.59;5105239;28;20051;-63
2020/12/02 11:21:24;;;;;;;20.80;10.65;;;;;;;2.79;77.61;101087.31;5105294;28;20042;-66
2020/12/02 11:24:08;;;;;;;28.67;14.48;;;;;;;2.66;78.57;101086.00;5103964;28;20043;-66
2020/12/02 11:26:36;;;;;;;25.45;13.23;;;;;;;2.70;78.60;101089.56;5104785;28;20046;-66
2020/12/02 11:29:04;;;;;;;14.02;8.30;;;;;;;2.92;77.55;101075.78;5105248;28;20103;-66
2020/12/02 11:31:52;;;;;;;26.70;14.45;;;;;;;2.77;78.15;101078.69;5104790;28;20040;-65
2020/12/02 11:34:36;;;;;;;16.20;8.80;;;;;;;2.75;78.46;101066.63;5105051;28;20066;-65
2020/12/02 11:37:13;;;;;;;24.35;14.02;;;;;;;2.76;78.37;101066.69;5104914;28;20031;-66
2020/12/02 11:40:02;;;;;;;28.00;15.43;;;;;;;2.79;78.26;101060.78;5103480;28;20024;-65
2020/12/02 11:42:41;;;;;;;21.60;10.15;;;;;;;2.90;78.16;101067.16;5104762;28;20031;-67
2020/12/02 11:45:17;;;;;;;26.33;13.13;;;;;;;2.87;77.82;101054.22;5104569;28;20016;-66
2020/12/02 11:47:45;;;;;;;24.25;14.05;;;;;;;2.75;78.70;101058.94;5104914;28;20066;-66
2020/12/02 11:50:37;;;;;;;20.80;11.25;;;;;;;2.88;78.35;101050.81;5104646;28;20044;-66